createdAt,value
2018-06-21T16:43:19.433Z,19136.00
2018-06-21T16:44:19.479Z,19104.00
2018-06-21T16:45:19.530Z,19168.00
2018-06-21T16:46:19.571Z,18528.00
2018-06-21T16:47:19.750Z,18240.00
2018-06-21T16:48:19.665Z,17792.00
2018-06-21T16:49:19.720Z,17536.00
2018-06-21T16:50:19.765Z,17408.00
2018-06-21T16:51:19.805Z,17376.00
2018-06-21T16:52:19.855Z,17248.00
2018-06-21T16:53:20.075Z,17024.00
2018-06-21T16:54:20.043Z,17120.00
2018-06-21T16:55:19.992Z,17312.00
2018-06-21T16:56:20.041Z,17728.00
2018-06-21T16:57:20.091Z,17696.00
2018-06-21T16:58:20.129Z,17216.00
2018-06-21T16:59:20.199Z,6524.00
2018-06-21T17:00:20.221Z,17920.00
2018-06-21T17:01:20.267Z,17600.00
2018-06-21T17:02:20.315Z,17632.00
2018-06-21T17:03:20.362Z,17120.00
2018-06-21T17:04:20.407Z,15712.00
2018-06-21T17:05:20.457Z,15520.00
2018-06-21T17:06:20.499Z,11532.00
2018-06-21T17:07:20.547Z,9908.00
2018-06-21T17:08:20.590Z,10976.00
2018-06-21T17:09:20.636Z,14628.00
2018-06-21T17:10:20.690Z,6900.00
2018-06-21T17:11:20.726Z,6396.00
2018-06-21T17:12:20.773Z,9456.00
2018-06-21T17:13:20.817Z,9608.00
2018-06-21T17:14:20.861Z,5956.00
2018-06-21T17:15:20.911Z,4680.00
2018-06-21T17:16:20.961Z,8464.00
2018-06-21T17:17:20.995Z,11896.00
2018-06-21T17:18:21.046Z,9308.00
2018-06-21T17:19:21.241Z,9368.00
2018-06-21T17:20:21.128Z,9660.00
2018-06-21T17:21:21.176Z,10108.00
2018-06-21T17:22:21.214Z,12224.00
2018-06-21T17:23:21.259Z,9136.00
2018-06-21T17:24:21.305Z,7184.00
2018-06-21T17:25:21.345Z,7672.00
2018-06-21T17:26:21.395Z,5312.00
2018-06-21T17:27:21.434Z,4840.00
2018-06-21T17:28:21.485Z,4280.00
2018-06-21T17:29:21.524Z,3988.00
2018-06-21T17:30:21.564Z,4000.00
2018-06-21T17:31:21.611Z,4216.00
2018-06-21T17:32:21.648Z,5420.00
2018-06-21T17:33:21.686Z,5032.00
2018-06-21T17:34:21.731Z,4676.00
2018-06-21T17:35:21.774Z,4756.00
2018-06-21T17:36:21.816Z,5904.00
2018-06-21T17:37:21.862Z,5368.00
2018-06-21T17:38:21.906Z,5936.00
2018-06-21T17:39:21.940Z,4972.00
2018-06-21T17:40:21.989Z,4804.00
2018-06-21T17:41:22.022Z,5160.00
2018-06-21T17:42:22.065Z,4504.00
2018-06-21T17:43:22.122Z,4548.00
2018-06-21T17:44:22.148Z,4560.00
2018-06-21T17:45:22.207Z,4348.00
2018-06-21T17:46:22.232Z,4052.00
2018-06-21T17:47:22.269Z,4028.00
2018-06-21T17:48:22.316Z,4268.00
2018-06-21T17:49:22.353Z,4612.00
2018-06-21T17:50:22.395Z,4692.00
2018-06-21T17:51:22.466Z,4684.00
2018-06-21T17:52:22.478Z,4848.00
2018-06-21T17:53:22.513Z,5724.00
2018-06-21T17:54:22.555Z,4668.00
2018-06-21T17:55:22.600Z,4552.00
2018-06-21T17:56:22.637Z,3960.00
2018-06-21T17:57:22.687Z,4020.00
2018-06-21T17:58:22.722Z,4028.00
2018-06-21T17:59:22.756Z,3840.00
2018-06-21T18:00:22.806Z,3940.00
2018-06-21T18:01:22.835Z,4168.00
2018-06-21T18:02:22.931Z,4332.00
2018-06-21T18:03:22.920Z,4192.00
2018-06-21T18:04:22.961Z,4220.00
2018-06-21T18:05:22.998Z,4132.00
2018-06-21T18:06:23.038Z,3696.00
2018-06-21T18:07:23.081Z,3424.00
2018-06-21T18:08:23.118Z,3608.00
2018-06-21T18:09:23.157Z,3744.00
2018-06-21T18:10:23.373Z,3784.00
2018-06-21T18:11:23.236Z,3680.00
2018-06-21T18:12:23.285Z,3664.00
2018-06-21T18:13:23.343Z,3616.00
2018-06-21T18:14:23.355Z,3420.00
2018-06-21T18:15:23.407Z,2952.00
2018-06-21T18:16:23.435Z,2764.00
2018-06-21T18:17:23.475Z,2812.00
2018-06-21T18:18:23.513Z,2764.00
2018-06-21T18:19:23.563Z,2784.00
2018-06-21T18:20:23.592Z,2692.00
2018-06-21T18:21:23.631Z,2728.00
2018-06-21T18:22:23.672Z,2824.00
2018-06-21T18:23:23.712Z,2928.00
2018-06-21T18:24:23.753Z,2952.00
2018-06-21T18:25:23.788Z,2964.00
2018-06-21T18:26:23.836Z,3132.00
2018-06-21T18:27:23.869Z,3236.00
2018-06-21T18:28:23.907Z,3308.00
2018-06-21T18:29:23.953Z,3244.00
2018-06-21T18:30:23.993Z,2964.00
2018-06-21T18:31:24.029Z,2808.00
2018-06-21T18:32:24.063Z,2720.00
2018-06-21T18:33:24.103Z,2656.00
2018-06-21T18:34:24.146Z,2484.00
2018-06-21T18:35:24.246Z,2412.00
2018-06-21T18:36:24.233Z,2504.00
2018-06-21T18:37:24.259Z,2544.00
2018-06-21T18:38:24.298Z,2600.00
2018-06-21T18:39:24.338Z,2588.00
2018-06-21T18:40:24.377Z,2532.00
2018-06-21T18:41:24.416Z,2496.00
2018-06-21T18:42:24.454Z,2528.00
2018-06-21T18:43:24.498Z,2552.00
2018-06-21T18:44:24.555Z,2676.00
2018-06-21T18:45:24.576Z,2788.00
2018-06-21T18:46:24.612Z,2788.00
2018-06-21T18:47:24.652Z,2712.00
2018-06-21T18:48:24.689Z,2552.00
2018-06-21T18:49:24.728Z,2460.00
2018-06-21T18:50:24.765Z,2364.00
2018-06-21T18:51:24.818Z,2200.00
2018-06-21T18:52:24.845Z,2024.00
2018-06-21T18:53:24.881Z,1892.00
2018-06-21T18:54:24.948Z,1824.00
2018-06-21T18:55:24.961Z,1820.00
2018-06-21T18:56:25.004Z,1832.00
2018-06-21T18:57:25.042Z,1816.00
2018-06-21T18:58:25.077Z,1764.00
2018-06-21T18:59:25.117Z,1656.00
2018-06-21T19:00:25.166Z,1560.00
2018-06-21T19:01:25.204Z,1524.00
2018-06-21T19:02:25.239Z,1556.00
2018-06-21T19:03:25.411Z,1696.00
2018-06-21T19:04:25.383Z,1868.00
2018-06-21T19:05:25.348Z,2008.00
2018-06-21T19:06:25.394Z,1928.00
2018-06-21T19:07:25.426Z,1772.00
2018-06-21T19:08:25.464Z,1516.00
2018-06-21T19:09:25.511Z,1320.00
2018-06-21T19:10:25.657Z,1204.00
2018-06-21T19:11:25.591Z,1140.00
2018-06-21T19:12:25.628Z,1096.00
2018-06-21T19:13:25.666Z,1056.00
2018-06-21T19:14:25.700Z,1020.00
2018-06-21T19:15:25.734Z,984.00
2018-06-21T19:16:25.772Z,944.00
2018-06-21T19:17:25.814Z,908.00
2018-06-21T19:18:25.852Z,872.00
2018-06-21T19:19:25.906Z,832.00
2018-06-21T19:20:25.926Z,804.00
2018-06-21T19:21:25.964Z,776.00
2018-06-21T19:22:26.003Z,740.00
2018-06-21T19:23:26.051Z,708.00
2018-06-21T19:24:26.080Z,656.00
2018-06-21T19:25:26.120Z,608.00
2018-06-21T19:26:26.199Z,568.00
2018-06-21T19:27:26.204Z,520.00
2018-06-21T19:28:26.241Z,476.00
2018-06-21T19:29:26.441Z,444.00
2018-06-21T19:30:26.310Z,424.00
2018-06-21T19:31:26.348Z,404.00
2018-06-21T19:32:26.387Z,372.00
2018-06-21T19:33:26.426Z,336.00
2018-06-21T19:34:26.469Z,308.00
2018-06-21T19:35:26.504Z,296.00
2018-06-21T19:36:26.551Z,288.00
2018-06-21T19:37:26.575Z,264.00
2018-06-21T19:38:26.615Z,228.00
2018-06-21T19:39:26.653Z,200.00
2018-06-21T19:40:26.692Z,176.00
2018-06-21T19:41:26.730Z,152.00
2018-06-21T19:42:26.778Z,132.00
2018-06-21T19:43:26.809Z,120.00
2018-06-21T19:44:26.846Z,108.00
2018-06-21T19:45:26.889Z,96.00
2018-06-21T19:46:26.928Z,88.00
2018-06-21T19:47:26.964Z,84.00
2018-06-21T19:48:26.997Z,72.00
2018-06-21T19:49:27.067Z,60.00
2018-06-21T19:50:27.073Z,52.00
2018-06-21T19:51:27.110Z,44.00
2018-06-21T19:52:27.149Z,32.00
2018-06-21T19:53:27.190Z,28.00
2018-06-21T19:54:27.225Z,24.00
2018-06-21T19:55:27.266Z,24.00
2018-06-21T19:56:27.304Z,24.00
2018-06-21T19:57:27.345Z,24.00
2018-06-21T19:58:27.459Z,20.00
2018-06-21T19:59:27.418Z,20.00
2018-06-21T20:00:27.557Z,16.00
2018-06-21T20:01:27.497Z,12.00
2018-06-21T20:02:27.544Z,12.00
2018-06-21T20:03:27.568Z,8.00
2018-06-21T20:04:27.609Z,4.00
2018-06-21T20:05:27.651Z,8.00
2018-06-21T20:06:27.688Z,4.00
2018-06-21T20:07:27.732Z,8.00
2018-06-21T20:08:27.761Z,4.00
2018-06-21T20:09:27.803Z,4.00
2018-06-21T20:10:27.833Z,0.00
2018-06-21T20:11:27.869Z,4.00
2018-06-21T20:12:27.912Z,0.00
2018-06-21T20:13:27.946Z,0.00
2018-06-21T20:14:27.986Z,0.00
2018-06-21T20:15:28.077Z,0.00
2018-06-21T20:16:28.062Z,0.00
2018-06-21T20:17:28.101Z,0.00
2018-06-21T20:18:28.186Z,0.00
2018-06-21T20:19:28.181Z,0.00
2018-06-21T20:20:28.212Z,0.00
2018-06-21T20:21:28.251Z,0.00
2018-06-21T20:22:28.298Z,0.00
2018-06-21T20:23:28.328Z,0.00
2018-06-21T20:24:28.364Z,0.00
2018-06-21T20:25:28.405Z,0.00
2018-06-21T20:26:28.449Z,0.00
2018-06-21T20:27:28.483Z,0.00
2018-06-21T20:28:28.515Z,0.00
2018-06-21T20:29:28.557Z,0.00
2018-06-21T20:30:28.592Z,0.00
2018-06-21T20:31:28.628Z,0.00
2018-06-21T20:32:28.666Z,0.00
2018-06-21T20:33:28.703Z,0.00
2018-06-21T20:34:28.741Z,0.00
2018-06-21T20:35:28.779Z,0.00
2018-06-21T20:36:28.815Z,0.00
2018-06-21T20:37:28.860Z,0.00
2018-06-21T20:38:28.892Z,0.00
2018-06-21T20:39:28.928Z,0.00
2018-06-21T20:40:28.976Z,0.00
2018-06-21T20:41:29.003Z,0.00
2018-06-21T20:42:29.043Z,0.00
2018-06-21T20:43:29.076Z,0.00
2018-06-21T20:44:29.113Z,0.00
2018-06-21T20:45:29.154Z,0.00
2018-06-21T20:46:29.188Z,0.00
2018-06-21T20:47:29.225Z,0.00
2018-06-21T20:48:29.267Z,0.00
2018-06-21T20:49:29.315Z,0.00
2018-06-21T20:50:29.390Z,0.00
2018-06-21T20:51:29.373Z,0.00
2018-06-21T20:52:29.414Z,0.00
2018-06-21T20:53:29.466Z,0.00
2018-06-21T20:54:29.484Z,0.00
2018-06-21T20:55:29.522Z,0.00
2018-06-21T20:56:29.565Z,0.00
2018-06-21T20:57:29.596Z,0.00
2018-06-21T20:58:29.632Z,0.00
2018-06-21T20:59:29.672Z,0.00
2018-06-21T21:00:29.709Z,0.00
2018-06-21T21:01:29.746Z,0.00
2018-06-21T21:02:29.889Z,0.00
2018-06-21T21:03:29.853Z,0.00
2018-06-21T21:04:29.862Z,0.00
2018-06-21T21:05:29.889Z,0.00
2018-06-21T21:06:29.926Z,0.00
2018-06-21T21:07:29.963Z,0.00
2018-06-21T21:08:30.000Z,0.00
2018-06-21T21:09:30.046Z,0.00
2018-06-21T21:10:30.073Z,0.00
2018-06-21T21:11:30.115Z,0.00
2018-06-21T21:12:30.145Z,0.00
2018-06-21T21:13:30.182Z,0.00
2018-06-21T21:14:30.217Z,0.00
2018-06-21T21:15:30.262Z,0.00
2018-06-21T21:16:30.325Z,0.00
2018-06-21T21:17:30.326Z,0.00
2018-06-21T21:18:30.363Z,0.00
2018-06-21T21:19:30.400Z,0.00
2018-06-21T21:20:30.440Z,0.00
2018-06-21T21:21:30.474Z,0.00
2018-06-21T21:22:30.533Z,0.00
2018-06-21T21:23:30.549Z,0.00
2018-06-21T21:24:30.616Z,0.00
2018-06-21T21:25:30.621Z,0.00
2018-06-21T21:26:30.681Z,0.00
2018-06-21T21:27:30.744Z,0.00
2018-06-21T21:28:30.812Z,0.00
2018-06-21T21:29:30.767Z,0.00
2018-06-21T21:30:30.806Z,0.00
2018-06-21T21:31:30.847Z,0.00
2018-06-21T21:32:30.945Z,0.00
2018-06-21T21:33:30.912Z,0.00
2018-06-21T21:34:30.949Z,0.00
2018-06-21T21:35:30.997Z,0.00
2018-06-21T21:36:31.089Z,0.00
2018-06-21T21:37:31.057Z,0.00
2018-06-21T21:38:31.095Z,0.00
2018-06-21T21:39:31.131Z,0.00
2018-06-21T21:40:31.172Z,0.00
2018-06-21T21:41:31.233Z,0.00
2018-06-21T21:42:31.245Z,0.00
2018-06-21T21:43:31.278Z,0.00
2018-06-21T21:44:31.315Z,0.00
2018-06-21T21:45:31.350Z,0.00
2018-06-21T21:46:31.388Z,0.00
2018-06-21T21:47:31.424Z,0.00
2018-06-21T21:48:31.460Z,0.00
2018-06-21T21:49:31.501Z,0.00
2018-06-21T21:50:31.533Z,0.00
2018-06-21T21:51:31.568Z,0.00
2018-06-21T21:52:31.666Z,0.00
2018-06-21T21:53:31.652Z,0.00
2018-06-21T21:54:31.687Z,0.00
2018-06-21T21:55:31.716Z,0.00
2018-06-21T21:56:31.755Z,0.00
2018-06-21T21:57:31.805Z,0.00
2018-06-21T21:58:31.826Z,0.00
2018-06-21T21:59:31.861Z,0.00
2018-06-21T22:00:31.898Z,0.00
2018-06-21T22:01:31.964Z,0.00
2018-06-21T22:02:31.969Z,0.00
2018-06-21T22:03:32.009Z,0.00
2018-06-21T22:04:32.054Z,0.00
2018-06-21T22:05:32.080Z,0.00
2018-06-21T22:06:32.159Z,0.00
2018-06-21T22:07:32.163Z,0.00
2018-06-21T22:08:32.192Z,0.00
2018-06-21T22:09:32.242Z,0.00
2018-06-21T22:10:32.263Z,0.00
2018-06-21T22:11:32.300Z,0.00
2018-06-21T22:12:32.336Z,0.00
2018-06-21T22:13:32.375Z,0.00
2018-06-21T22:14:32.414Z,0.00
2018-06-21T22:15:32.446Z,0.00
2018-06-21T22:16:32.482Z,0.00
2018-06-21T22:17:32.523Z,0.00
2018-06-21T22:18:32.552Z,0.00
2018-06-21T22:19:32.590Z,0.00
2018-06-21T22:20:32.629Z,0.00
2018-06-21T22:21:32.675Z,0.00
2018-06-21T22:22:32.699Z,0.00
2018-06-21T22:23:32.737Z,0.00
2018-06-21T22:24:32.772Z,0.00
2018-06-21T22:25:32.808Z,0.00
2018-06-21T22:26:32.852Z,0.00
2018-06-21T22:27:32.882Z,0.00
2018-06-21T22:28:32.917Z,0.00
2018-06-21T22:29:32.953Z,0.00
2018-06-21T22:30:33.012Z,0.00
2018-06-21T22:31:33.027Z,0.00
2018-06-21T22:32:33.062Z,0.00
2018-06-21T22:33:33.099Z,0.00
2018-06-21T22:34:33.144Z,0.00
2018-06-21T22:35:33.173Z,0.00
2018-06-21T22:36:33.207Z,0.00
2018-06-21T22:37:33.252Z,0.00
2018-06-21T22:38:33.285Z,0.00
2018-06-21T22:39:33.317Z,0.00
2018-06-21T22:40:33.354Z,0.00
2018-06-21T22:41:33.389Z,0.00
2018-06-21T22:42:33.429Z,0.00
2018-06-21T22:43:33.461Z,0.00
2018-06-21T22:44:33.498Z,0.00
2018-06-21T22:45:33.535Z,0.00
2018-06-21T22:46:33.579Z,0.00
2018-06-21T22:47:33.607Z,0.00
2018-06-21T22:48:33.642Z,0.00
2018-06-21T22:49:33.682Z,0.00
2018-06-21T22:50:33.770Z,0.00
2018-06-21T22:51:33.770Z,0.00
2018-06-21T22:52:33.788Z,0.00
2018-06-21T22:53:33.821Z,0.00
2018-06-21T22:54:33.858Z,0.00
2018-06-21T22:55:33.895Z,0.00
2018-06-21T22:56:33.933Z,0.00
2018-06-21T22:57:33.974Z,0.00
2018-06-21T22:58:34.006Z,0.00
2018-06-21T22:59:34.039Z,0.00
2018-06-21T23:00:34.086Z,0.00
2018-06-21T23:01:34.113Z,0.00
2018-06-21T23:02:34.147Z,0.00
2018-06-21T23:03:34.184Z,0.00
2018-06-21T23:04:34.272Z,0.00
2018-06-21T23:05:34.275Z,0.00
2018-06-21T23:06:34.300Z,0.00
2018-06-21T23:07:34.333Z,0.00
2018-06-21T23:08:34.364Z,0.00
2018-06-21T23:09:34.401Z,0.00
2018-06-21T23:10:34.435Z,0.00
2018-06-21T23:11:34.484Z,0.00
2018-06-21T23:12:34.510Z,0.00
2018-06-21T23:13:34.547Z,0.00
2018-06-21T23:14:34.597Z,0.00
2018-06-21T23:15:34.622Z,0.00
2018-06-21T23:16:34.653Z,0.00
2018-06-21T23:17:34.691Z,0.00
2018-06-21T23:18:34.777Z,0.00
2018-06-21T23:19:34.760Z,0.00
2018-06-21T23:20:34.798Z,0.00
2018-06-21T23:21:34.833Z,0.00
2018-06-21T23:22:34.868Z,0.00
2018-06-21T23:23:34.903Z,0.00
2018-06-21T23:24:34.943Z,0.00
2018-06-21T23:25:34.977Z,0.00
2018-06-21T23:26:35.012Z,0.00
2018-06-21T23:27:35.052Z,0.00
2018-06-21T23:28:35.088Z,0.00
2018-06-21T23:29:35.121Z,0.00
2018-06-21T23:30:35.161Z,0.00
2018-06-21T23:31:35.192Z,0.00
2018-06-21T23:32:35.230Z,0.00
2018-06-21T23:33:35.266Z,0.00
2018-06-21T23:34:35.300Z,0.00
2018-06-21T23:35:35.336Z,0.00
2018-06-21T23:36:35.373Z,0.00
2018-06-21T23:37:35.412Z,0.00
2018-06-21T23:38:35.451Z,0.00
2018-06-21T23:39:35.487Z,0.00
2018-06-21T23:40:35.517Z,0.00
2018-06-21T23:41:35.550Z,0.00
2018-06-21T23:42:35.590Z,0.00
2018-06-21T23:43:35.623Z,0.00
2018-06-21T23:44:35.822Z,0.00
2018-06-21T23:45:35.695Z,0.00
2018-06-21T23:46:35.731Z,0.00
2018-06-21T23:47:35.767Z,0.00
2018-06-21T23:48:35.804Z,0.00
2018-06-21T23:49:35.842Z,0.00
2018-06-21T23:50:35.875Z,0.00
2018-06-21T23:51:35.918Z,0.00
2018-06-21T23:52:35.948Z,0.00
2018-06-21T23:53:35.981Z,0.00
2018-06-21T23:54:36.020Z,0.00
2018-06-21T23:55:36.054Z,0.00
2018-06-21T23:56:36.089Z,0.00
2018-06-21T23:57:36.123Z,0.00
2018-06-21T23:58:36.161Z,0.00
2018-06-21T23:59:36.195Z,0.00
